AirNav   TITAN Aviation Fuels
 
 1383 users online  

4XA4 Apache Pass Airport
Rockdale, Texas, USA

GOING TO ROCKDALE?


FAA INFORMATION EFFECTIVE 30 DECEMBER 2021

Location

FAA Identifier: 4XA4
Lat/Long: 30-41-00.7900N 097-08-36.1600W
30-41.013167N 097-08.602667W
30.6835528,-97.1433778
(estimated)
Elevation: 410 ft. / 125 m (estimated)
From city: 7 miles NW of ROCKDALE, TX
Time zone: UTC -6 (UTC -5 during Daylight Saving Time)
Zip code: 76577

Airport Operations

Airport use: Private use. Permission required prior to landing
Activation date: 01/2008
Control tower: no
ARTCC: HOUSTON CENTER
FSS: SAN ANGELO FLIGHT SERVICE STATION
Attendance: UNATNDD
Wind indicator: yes
Segmented circle: no

Airport Communications

WX AWOS-3P at T35 (15 nm NE): 124.1 (254-605-0856)
WX AWOS-3PT at T74 (17 nm SW): 119.75 (512-352-4995)

Nearby radio navigation aids

VOR radial/distance  VOR name  Freq  Var
CWKr042/27.1CENTEX VORTAC112.8006E
CLLr269/37.6COLLEGE STATION VORTAC113.3008E

Airport Services

Runway Information

Runway 1/19

Dimensions: 3000 x 60 ft. / 914 x 18 m
Surface: turf, in good condition
RUNWAY 1  RUNWAY 19
Traffic pattern: leftleft
Obstructions: 20 ft. pline, 1000 ft. from runwaynone

Airport Ownership and Management from official FAA records

Ownership: Privately-owned
Owner: KIT WORLEY
9132 N FM 908
ROCKDALE, TX 76567
Phone 512-429-0314
Manager: LANNY WORLEY
9132 N FM 908
ROCKDALE, TX 76567
Phone 512-429-1555

Airport Operational Statistics

Aircraft based on the field: 1
Ultralights: 1
    

Additional Remarks

FOR CD CTC AUSTIN APCH AT 512-269-7865.

Instrument Procedures

There are no published instrument procedures at 4XA4.

Some nearby airports with instrument procedures:

T74 - Taylor Municipal Airport (17 nm SW)
KRWV - Caldwell Municipal Airport (25 nm SE)
KGTU - Georgetown Municipal Airport (28 nm W)
KEDC - Austin Executive Airport (28 nm SW)
KLHB - Hearne Municipal Airport (29 nm NE)
 
Loc | Ops | Rwys | IFR | FBO | Links
Com | Nav | Svcs | Stats | Notes
Aerial photo
WARNING: Photo may not be current or correct
Aerial photo of 4XA4 (Apache Pass Airport)
Photo by Lanny Worley.

Do you have a better or more recent aerial photo of Apache Pass Airport that you would like to share? If so, please send us your photo.

 
Sectional chart

 
Airport distance calculator
Flying to Apache Pass Airport? Find the distance to fly.

From to 4XA4

Sunrise and sunset
Times for 19-Jan-2022
 Local
(UTC-6)
 Zulu
(UTC)
Morning civil twilight07:0113:01
Sunrise07:2713:27
Sunset17:5223:52
Evening civil twilight18:1800:18

Current date and time
Zulu (UTC)  19-Jan-2022 17:00:36
Local (UTC-6)  19-Jan-2022 11:00:36
 
METAR
KT35 
15nm NE 
191635Z AUTO 23010KT 10SM OVC018 20/16 A2997 RMK AO2 T02000162
KT74 
17nm SW 
191635Z AUTO 22004KT 10SM SCT013 OVC024 19/16 A2998 RMK AO2 T01940164
KRWV 
25nm SE 
191635Z AUTO 22012G16KT 10SM SCT011 OVC030 21/18 A2999 RMK AO2 T02080176
KGTU 
27nm W 
191611Z 21008KT 10SM SCT013 OVC110 18/16 A2999 RMK AO2
KEDC 
28nm SW 
191635Z AUTO 23006KT 7SM SCT015 BKN020 OVC026 19/17 A2998 RMK AO2
KLHB 
29nm NE 
191635Z AUTO 19009KT 10SM OVC018 A2998 RMK AO2
TAF
KAUS 
37nm SW 
191455Z 1915/2018 19003KT P6SM SCT010 OVC015 FM191800 21006KT P6SM FEW035 FEW250 FM200000 36020G30KT P6SM SCT022 SCT080 BKN250 FM201000 36020G30KT P6SM BKN028 OVC080
KCLL 
41nm E 
191304Z 1913/2012 19007KT P6SM OVC010 FM191600 20012KT P6SM SCT015 BKN025 FM192200 21012KT P6SM VCTS SCT025CB BKN035 FM200100 35015G25KT P6SM BKN025 FM200800 25015G25KT P6SM OVC015
KGRK 
42nm NW 
191600Z 1916/2022 23010KT 9999 BKN120 QNH2986INS BECMG 1923/1924 30015G25KT 9999 SCT090 QNH2993INS BECMG 2003/2004 01020G30KT 9999 FEW065 QNH3015INS BECMG 2009/2010 01015KT 9999 SKC QNH3027INS BECMG 2012/2013 01020G30KT 9999 FEW040 QNH3036INS BECMG 2017/2018 01015G25KT 9999 BKN040 QNH3038INS TX24/1921Z TN00/2014Z
NOTAMs
Click for the latest NOTAMs
NOTAMs are issued by the DoD/FAA and will open in a separate window not controlled by AirNav.

 

 
 

Would you like to see your business listed on this page?

 If your business provides an interesting product or service to pilots, flight crews, aircraft, or users of the Apache Pass Airport, you should consider listing it here.  To start the listing process, click on the button below
 
Add a business
 

Other Pages about Apache Pass Airport

Apache Pass Air Park
 
Update a link
 
Copyright © AirNav, LLC. All rights reserved. Privacy Policy  Contact